Time;durP1;ratioP1;P1;durP2;ratioP2;P2;SDS_P1;SDS_P2;PMS_P1;PMS_P2;Temp;Humidity;BMP_temperature;BMP_pressure;BME280_temperature;BME280_humidity;BME280_pressure;Samples;Min_cycle;Max_cycle;Signal;HPM_P1;HPM_P2
2024/01/19 00:01:18;;;;;;;17.73;8.87;;;;;;;;;;5050980;28;20013;-95
2024/01/19 00:03:44;;;;;;;18.63;9.18;;;;;;;;;;5040684;28;20446;-95
2024/01/19 00:06:09;;;;;;;16.92;8.40;;;;;;;;;;5042459;28;20016;-95
2024/01/19 00:08:35;;;;;;;19.10;8.00;;;;;;;;;;5016961;28;20017;-95
2024/01/19 00:11:00;;;;;;;17.93;9.37;;;;;;;;;;5016709;28;20018;-96
2024/01/19 00:13:27;;;;;;;19.77;8.77;;;;;;;;;;5034584;28;20413;-96
2024/01/19 00:15:53;;;;;;;17.87;8.07;;;;;;;;;;5033875;28;20018;-96
2024/01/19 00:18:18;;;;;;;14.85;8.15;;;;;;;;;;5031276;28;20010;-96
2024/01/19 00:20:43;;;;;;;18.77;9.80;;;;;;;;;;5033730;28;20018;-96
2024/01/19 00:23:09;;;;;;;19.60;9.67;;;;;;;;;;5016878;28;20369;-96
2024/01/19 00:25:34;;;;;;;24.33;10.37;;;;;;;;;;5036571;28;20477;-96
2024/01/19 00:27:59;;;;;;;25.37;8.60;;;;;;;;;;5032672;28;20013;-95
2024/01/19 00:30:24;;;;;;;13.57;7.87;;;;;;;;;;5042381;28;20380;-93
2024/01/19 00:32:49;;;;;;;17.33;9.00;;;;;;;;;;5034106;28;20510;-93
2024/01/19 00:35:15;;;;;;;17.63;9.20;;;;;;;;;;5035244;28;20082;-93
2024/01/19 00:37:40;;;;;;;14.70;8.40;;;;;;;;;;5036329;28;20472;-93
2024/01/19 00:40:11;;;;;;;18.13;8.33;;;;;;;;;;5036352;28;20017;-93
2024/01/19 00:42:36;;;;;;;16.48;8.13;;;;;;;;;;5044497;28;20028;-93
2024/01/19 00:45:02;;;;;;;16.77;7.80;;;;;;;;;;5047767;28;20013;-93
2024/01/19 00:47:27;;;;;;;25.57;8.33;;;;;;;;;;5046868;28;20033;-92
2024/01/19 00:49:52;;;;;;;17.80;7.13;;;;;;;;;;5051678;28;20029;-93
2024/01/19 00:52:17;;;;;;;15.87;7.60;;;;;;;;;;5035802;28;20034;-93
2024/01/19 00:54:44;;;;;;;18.03;7.40;;;;;;;;;;5021199;28;20017;-93
2024/01/19 00:57:09;;;;;;;15.40;7.20;;;;;;;;;;5018710;28;20265;-93
2024/01/19 00:59:34;;;;;;;14.13;7.17;;;;;;;;;;5024029;28;20024;-93
2024/01/19 01:01:59;;;;;;;14.20;7.53;;;;;;;;;;5036468;28;20022;-93
2024/01/19 01:04:24;;;;;;;15.60;7.47;;;;;;;;;;5020392;28;20685;-93
2024/01/19 01:06:49;;;;;;;27.23;7.30;;;;;;;;;;5008870;28;20135;-92
2024/01/19 01:09:15;;;;;;;14.43;7.40;;;;;;;;;;5017345;28;20025;-93
2024/01/19 01:11:40;;;;;;;13.40;7.70;;;;;;;;;;5031696;28;20327;-93
2024/01/19 01:14:06;;;;;;;13.80;7.60;;;;;;;;;;5019272;28;20031;-93
2024/01/19 01:16:31;;;;;;;12.17;7.07;;;;;;;;;;5019356;28;20014;-93
2024/01/19 01:18:57;;;;;;;12.57;6.87;;;;;;;;;;5036358;28;20030;-92
2024/01/19 01:21:22;;;;;;;18.02;7.32;;;;;;;;;;5018917;28;20013;-92
2024/01/19 01:23:47;;;;;;;13.07;6.90;;;;;;;;;;5018541;28;20021;-93
2024/01/19 01:26:12;;;;;;;16.00;7.30;;;;;;;;;;5035839;28;20037;-92
2024/01/19 01:28:37;;;;;;;16.03;7.50;;;;;;;;;;5038282;28;20472;-93
2024/01/19 01:31:03;;;;;;;17.37;7.60;;;;;;;;;;5040457;28;20026;-92
2024/01/19 01:33:29;;;;;;;16.00;7.63;;;;;;;;;;5028750;28;20036;-93
2024/01/19 01:35:54;;;;;;;13.77;7.63;;;;;;;;;;5031531;28;20025;-92
2024/01/19 01:38:19;;;;;;;20.13;7.77;;;;;;;;;;5053164;28;20187;-92
2024/01/19 01:40:44;;;;;;;18.50;8.13;;;;;;;;;;5039096;28;20080;-93
2024/01/19 01:43:18;;;;;;;18.43;8.60;;;;;;;;;;5057240;28;20025;-93
2024/01/19 01:45:43;;;;;;;17.08;7.30;;;;;;;;;;5037629;28;20009;-93
2024/01/19 01:48:08;;;;;;;12.93;7.60;;;;;;;;;;5054407;28;20013;-92
2024/01/19 01:50:34;;;;;;;15.50;7.50;;;;;;;;;;5056053;28;20028;-92
2024/01/19 01:53:00;;;;;;;20.60;8.17;;;;;;;;;;5036038;28;20027;-93
2024/01/19 01:55:25;;;;;;;17.25;7.97;;;;;;;;;;5055518;28;20013;-92
2024/01/19 01:57:50;;;;;;;17.27;7.17;;;;;;;;;;5055953;28;20120;-92
2024/01/19 02:00:16;;;;;;;14.37;6.83;;;;;;;;;;5055804;28;20009;-92
2024/01/19 02:02:41;;;;;;;13.23;6.43;;;;;;;;;;5055442;28;20029;-93
2024/01/19 02:05:06;;;;;;;11.47;6.50;;;;;;;;;;5036457;28;20017;-93
2024/01/19 02:07:32;;;;;;;10.93;6.27;;;;;;;;;;5054752;28;20081;-92
2024/01/19 02:09:57;;;;;;;13.17;6.30;;;;;;;;;;5055895;28;20001;-92
2024/01/19 02:12:23;;;;;;;11.63;6.03;;;;;;;;;;5056423;28;20029;-93
2024/01/19 02:14:48;;;;;;;13.53;6.47;;;;;;;;;;5056767;28;20032;-91
2024/01/19 02:17:13;;;;;;;12.03;6.03;;;;;;;;;;5057279;28;20009;-91
2024/01/19 02:19:39;;;;;;;9.47;5.60;;;;;;;;;;5056467;28;20087;-91
2024/01/19 02:22:05;;;;;;;13.85;5.60;;;;;;;;;;5039173;28;20132;-91
2024/01/19 02:24:30;;;;;;;10.93;5.80;;;;;;;;;;5037792;28;20081;-92
2024/01/19 02:26:56;;;;;;;10.57;5.30;;;;;;;;;;5039336;28;20055;-91
2024/01/19 02:29:21;;;;;;;8.77;4.80;;;;;;;;;;5056827;28;20009;-90
2024/01/19 02:31:47;;;;;;;10.50;4.93;;;;;;;;;;5056107;28;20303;-92
2024/01/19 02:34:12;;;;;;;15.53;4.93;;;;;;;;;;5038855;28;20024;-91
2024/01/19 02:36:37;;;;;;;11.30;4.67;;;;;;;;;;5054509;28;20021;-92
2024/01/19 02:39:03;;;;;;;10.47;5.00;;;;;;;;;;5036651;28;20001;-93
2024/01/19 02:41:28;;;;;;;8.17;4.97;;;;;;;;;;5053769;28;20292;-93
2024/01/19 02:43:54;;;;;;;11.23;4.77;;;;;;;;;;5028493;28;20049;-92
2024/01/19 02:46:19;;;;;;;9.70;4.80;;;;;;;;;;5033407;28;20513;-91
2024/01/19 02:48:45;;;;;;;8.50;4.30;;;;;;;;;;5033728;28;20768;-93
2024/01/19 02:51:10;;;;;;;12.17;4.13;;;;;;;;;;5013767;28;20113;-92
2024/01/19 02:53:35;;;;;;;8.13;4.33;;;;;;;;;;5021817;28;20029;-92
2024/01/19 02:56:00;;;;;;;7.67;4.20;;;;;;;;;;5032368;28;20488;-92
2024/01/19 02:58:25;;;;;;;10.33;3.90;;;;;;;;;;5031293;28;20021;-92
2024/01/19 03:00:51;;;;;;;4.83;3.87;;;;;;;;;;5031361;28;20010;-92
2024/01/19 03:03:16;;;;;;;8.93;4.00;;;;;;;;;;5016813;28;20105;-92
2024/01/19 03:05:41;;;;;;;13.70;5.27;;;;;;;;;;5044347;28;20077;-92
2024/01/19 03:08:06;;;;;;;12.63;4.60;;;;;;;;;;5043119;28;20013;-92
2024/01/19 03:10:32;;;;;;;9.15;4.60;;;;;;;;;;5023052;28;20020;-92
2024/01/19 03:12:57;;;;;;;10.27;4.43;;;;;;;;;;5038483;28;20029;-92
2024/01/19 03:15:22;;;;;;;12.53;5.90;;;;;;;;;;5032052;28;20152;-92
2024/01/19 03:17:47;;;;;;;12.80;5.70;;;;;;;;;;5033479;28;20045;-92
2024/01/19 03:20:13;;;;;;;12.67;6.07;;;;;;;;;;5032280;28;20017;-92
2024/01/19 03:22:38;;;;;;;10.00;5.47;;;;;;;;;;5035965;28;20029;-92
2024/01/19 03:25:04;;;;;;;12.33;5.90;;;;;;;;;;5052426;28;20009;-92
2024/01/19 03:27:29;;;;;;;11.73;6.27;;;;;;;;;;5040003;28;20276;-92
2024/01/19 03:29:55;;;;;;;19.47;6.37;;;;;;;;;;5013598;28;20109;-92
2024/01/19 03:32:20;;;;;;;13.65;5.93;;;;;;;;;;5032987;28;20431;-93
2024/01/19 03:34:45;;;;;;;12.83;6.43;;;;;;;;;;5012818;28;20021;-92
2024/01/19 03:37:10;;;;;;;13.23;6.70;;;;;;;;;;5030959;28;20022;-92
2024/01/19 03:39:35;;;;;;;20.40;7.30;;;;;;;;;;5017196;28;20022;-92
2024/01/19 03:42:01;;;;;;;15.53;8.10;;;;;;;;;;5032508;28;20017;-91
2024/01/19 03:44:26;;;;;;;18.63;8.60;;;;;;;;;;5018058;28;20071;-96
2024/01/19 03:46:52;;;;;;;20.75;8.18;;;;;;;;;;5034896;28;20076;-95
2024/01/19 03:49:17;;;;;;;16.63;8.27;;;;;;;;;;5018346;28;20028;-94
2024/01/19 03:52:03;;;;;;;16.57;8.33;;;;;;;;;;5041724;28;20040;-93
2024/01/19 03:54:28;;;;;;;17.05;8.30;;;;;;;;;;5042803;28;20098;-92
2024/01/19 03:56:54;;;;;;;15.23;8.23;;;;;;;;;;5046682;28;20064;-91
2024/01/19 03:59:19;;;;;;;16.05;9.27;;;;;;;;;;5026500;28;20032;-94
2024/01/19 04:01:44;;;;;;;16.27;9.07;;;;;;;;;;5043769;28;20017;-92
2024/01/19 04:04:10;;;;;;;16.20;8.87;;;;;;;;;;5054332;28;20040;-94
2024/01/19 04:06:35;;;;;;;19.57;9.10;;;;;;;;;;5033840;28;20014;-92
2024/01/19 04:09:00;;;;;;;17.63;9.67;;;;;;;;;;5035061;28;20013;-96
2024/01/19 04:11:26;;;;;;;18.33;10.23;;;;;;;;;;5060003;28;20025;-95
2024/01/19 04:13:51;;;;;;;16.63;9.10;;;;;;;;;;5044707;28;20319;-96
2024/01/19 04:16:18;;;;;;;24.53;10.47;;;;;;;;;;5041948;28;20021;-95
2024/01/19 04:18:45;;;;;;;17.42;10.50;;;;;;;;;;5040606;28;20358;-96
2024/01/19 04:21:11;;;;;;;22.90;10.90;;;;;;;;;;5020128;28;20034;-95
2024/01/19 04:23:36;;;;;;;23.27;11.17;;;;;;;;;;5020400;28;20028;-96
2024/01/19 04:26:01;;;;;;;21.60;11.00;;;;;;;;;;5030597;28;20359;-95
2024/01/19 04:28:26;;;;;;;27.47;12.63;;;;;;;;;;5040235;28;20044;-95
2024/01/19 04:30:51;;;;;;;21.87;11.90;;;;;;;;;;5038181;28;20029;-93
2024/01/19 04:33:17;;;;;;;29.90;12.90;;;;;;;;;;5038213;28;20088;-94
2024/01/19 04:35:42;;;;;;;29.00;13.13;;;;;;;;;;5031132;28;20029;-95
2024/01/19 04:38:07;;;;;;;26.23;12.50;;;;;;;;;;5036130;28;20025;-96
2024/01/19 04:40:33;;;;;;;24.93;11.93;;;;;;;;;;5049795;28;20044;-96
2024/01/19 04:42:58;;;;;;;28.10;13.57;;;;;;;;;;5033284;28;20018;-95
2024/01/19 04:45:25;;;;;;;29.10;14.35;;;;;;;;;;5051597;28;20017;-96
2024/01/19 04:47:50;;;;;;;25.60;12.90;;;;;;;;;;5026081;28;20013;-96
2024/01/19 04:53:31;;;;;;;30.90;12.40;;;;;;;;;;5018451;28;20041;-96
2024/01/19 04:56:11;;;;;;;24.27;11.50;;;;;;;;;;5033443;28;20020;-95
2024/01/19 04:58:42;;;;;;;24.60;11.50;;;;;;;;;;5021311;28;20065;-96
2024/01/19 05:04:43;;;;;;;24.55;12.57;;;;;;;;;;5022577;28;20045;-95
2024/01/19 05:07:12;;;;;;;19.17;11.32;;;;;;;;;;5029737;28;20057;-96
2024/01/19 05:12:40;;;;;;;28.53;11.40;;;;;;;;;;5029038;28;20500;-96
2024/01/19 05:15:34;;;;;;;30.63;12.20;;;;;;;;;;5020789;28;20276;-96
2024/01/19 05:18:06;;;;;;;25.55;11.70;;;;;;;;;;5019642;28;20034;-96
2024/01/19 05:20:38;;;;;;;26.05;12.20;;;;;;;;;;5019495;28;20052;-96
2024/01/19 05:26:01;;;;;;;30.40;12.63;;;;;;;;;;4991494;28;20058;-96
2024/01/19 05:28:27;;;;;;;20.23;12.38;;;;;;;;;;5023561;28;20029;-95
2024/01/19 05:31:05;;;;;;;;;;;;;;;;;;;;;
2024/01/19 05:33:38;;;;;;;25.48;13.52;;;;;;;;;;5048949;28;20049;-92
2024/01/19 05:36:04;;;;;;;27.02;13.48;;;;;;;;;;5041291;28;20017;-94
2024/01/19 05:38:29;;;;;;;21.75;12.15;;;;;;;;;;5021199;28;20025;-94
2024/01/19 05:41:03;;;;;;;24.60;12.43;;;;;;;;;;5023560;28;20074;-95
2024/01/19 05:43:28;;;;;;;27.77;13.25;;;;;;;;;;5019249;28;20025;-94
2024/01/19 05:45:54;;;;;;;23.40;12.17;;;;;;;;;;5037093;28;20021;-95
2024/01/19 05:48:19;;;;;;;24.60;12.57;;;;;;;;;;5021878;28;20016;-95
2024/01/19 05:50:46;;;;;;;21.43;13.10;;;;;;;;;;5037624;28;20032;-95
2024/01/19 05:53:12;;;;;;;21.20;12.95;;;;;;;;;;5025007;28;20677;-95
2024/01/19 05:55:37;;;;;;;24.97;13.93;;;;;;;;;;5079058;22;20066;-95
2024/01/19 05:58:04;;;;;;;36.20;16.03;;;;;;;;;;5082771;28;20404;-89
2024/01/19 06:00:30;;;;;;;26.38;14.30;;;;;;;;;;5085703;28;20133;-93
2024/01/19 06:02:58;;;;;;;26.13;13.67;;;;;;;;;;5062899;28;20048;-92
2024/01/19 06:05:24;;;;;;;25.38;14.10;;;;;;;;;;5107774;28;20016;-94
2024/01/19 06:08:18;;;;;;;31.17;15.25;;;;;;;;;;5108833;28;20414;-95
2024/01/19 06:10:44;;;;;;;22.40;13.13;;;;;;;;;;5100863;28;20028;-90
2024/01/19 06:13:10;;;;;;;23.70;13.60;;;;;;;;;;5101099;28;20046;-92
2024/01/19 06:15:36;;;;;;;27.88;14.55;;;;;;;;;;5085917;28;20045;-91
2024/01/19 06:18:02;;;;;;;26.93;13.97;;;;;;;;;;5079662;28;20129;-89
2024/01/19 06:20:27;;;;;;;23.10;13.43;;;;;;;;;;5092728;28;20034;-87
2024/01/19 06:25:58;;;;;;;21.57;12.93;;;;;;;;;;5092396;28;20660;-89
2024/01/19 06:28:23;;;;;;;23.90;13.52;;;;;;;;;;5089677;28;20196;-89
2024/01/19 06:30:48;;;;;;;24.97;13.17;;;;;;;;;;5090226;28;20069;-88
2024/01/19 06:33:13;;;;;;;21.97;13.40;;;;;;;;;;5091520;28;20035;-89
2024/01/19 06:35:39;;;;;;;21.73;13.03;;;;;;;;;;5090982;28;20035;-89
2024/01/19 06:38:07;;;;;;;21.58;12.27;;;;;;;;;;5090522;28;20026;-89
2024/01/19 06:40:32;;;;;;;21.77;12.53;;;;;;;;;;5084601;28;20048;-88
2024/01/19 06:42:57;;;;;;;20.43;12.27;;;;;;;;;;5090708;28;20069;-88
2024/01/19 06:45:22;;;;;;;20.67;11.90;;;;;;;;;;5089349;28;20420;-88
2024/01/19 06:47:47;;;;;;;22.88;12.20;;;;;;;;;;5091378;28;20023;-90
2024/01/19 06:50:13;;;;;;;18.03;11.97;;;;;;;;;;5087168;28;20442;-89
2024/01/19 06:52:39;;;;;;;18.47;11.83;;;;;;;;;;5090220;28;20024;-89
2024/01/19 06:55:04;;;;;;;17.17;10.80;;;;;;;;;;5090806;28;20472;-87
2024/01/19 06:57:30;;;;;;;18.90;11.00;;;;;;;;;;5090938;28;20031;-88
2024/01/19 06:59:55;;;;;;;20.50;11.03;;;;;;;;;;5091817;28;20024;-89
2024/01/19 07:02:20;;;;;;;18.97;11.30;;;;;;;;;;5093016;28;20193;-88
2024/01/19 07:04:45;;;;;;;18.17;10.93;;;;;;;;;;5094122;28;20016;-89
2024/01/19 07:07:10;;;;;;;18.67;10.53;;;;;;;;;;5091477;28;20020;-88
2024/01/19 07:09:36;;;;;;;19.07;10.60;;;;;;;;;;5064534;28;20024;-89
2024/01/19 07:12:02;;;;;;;22.33;11.40;;;;;;;;;;5086098;28;20036;-88
2024/01/19 07:14:27;;;;;;;17.35;10.35;;;;;;;;;;5090397;28;20115;-88
2024/01/19 07:16:53;;;;;;;20.20;11.40;;;;;;;;;;5087597;28;20101;-89
2024/01/19 07:19:18;;;;;;;17.93;10.87;;;;;;;;;;5091466;28;20122;-89
2024/01/19 07:21:43;;;;;;;16.57;10.07;;;;;;;;;;5093463;28;20022;-88
2024/01/19 07:24:09;;;;;;;17.17;10.93;;;;;;;;;;5072136;28;20047;-90
2024/01/19 07:26:35;;;;;;;20.92;11.50;;;;;;;;;;5087938;28;20138;-93
2024/01/19 07:29:04;;;;;;;17.43;11.03;;;;;;;;;;5059366;28;20479;-88
2024/01/19 07:31:29;;;;;;;21.88;12.35;;;;;;;;;;5088435;28;20016;-88
2024/01/19 07:33:55;;;;;;;18.33;10.65;;;;;;;;;;5089825;28;20052;-88
2024/01/19 07:36:20;;;;;;;18.37;11.20;;;;;;;;;;5088231;28;20462;-88
2024/01/19 07:38:45;;;;;;;21.40;11.00;;;;;;;;;;5086151;28;20020;-90
2024/01/19 07:41:10;;;;;;;21.53;11.07;;;;;;;;;;5092216;28;20095;-88
2024/01/19 07:43:35;;;;;;;20.20;11.07;;;;;;;;;;5091364;28;20670;-86
2024/01/19 07:46:02;;;;;;;21.53;11.03;;;;;;;;;;5085114;28;20024;-87
2024/01/19 07:48:27;;;;;;;21.17;11.40;;;;;;;;;;5100965;28;20099;-89
2024/01/19 07:50:52;;;;;;;17.10;10.53;;;;;;;;;;5104662;28;20027;-89
2024/01/19 07:53:19;;;;;;;20.33;11.40;;;;;;;;;;5358937;22;20172;-90
2024/01/19 07:55:44;;;;;;;20.30;12.75;;;;;;;;;;5104059;28;20012;-92
2024/01/19 07:58:10;;;;;;;24.70;11.83;;;;;;;;;;5100882;28;20035;-90
2024/01/19 08:00:36;;;;;;;26.53;11.73;;;;;;;;;;5100966;28;20015;-90
2024/01/19 08:03:01;;;;;;;20.60;11.57;;;;;;;;;;5101289;28;20114;-92
2024/01/19 08:05:27;;;;;;;24.80;11.93;;;;;;;;;;5106012;28;20489;-92
2024/01/19 08:07:52;;;;;;;16.10;11.23;;;;;;;;;;5099111;28;20032;-90
2024/01/19 08:10:18;;;;;;;23.77;11.50;;;;;;;;;;5099830;28;20077;-89
2024/01/19 08:12:43;;;;;;;24.27;11.88;;;;;;;;;;5096258;28;20593;-89
2024/01/19 08:15:09;;;;;;;17.37;10.93;;;;;;;;;;5095968;28;20062;-90
2024/01/19 08:17:34;;;;;;;27.90;12.60;;;;;;;;;;5098615;28;20453;-90
2024/01/19 08:19:59;;;;;;;28.83;12.53;;;;;;;;;;5102060;28;20038;-90
2024/01/19 08:22:25;;;;;;;25.58;11.63;;;;;;;;;;5100154;28;20076;-90
2024/01/19 08:24:51;;;;;;;21.93;11.23;;;;;;;;;;5094563;28;20028;-90
2024/01/19 08:27:17;;;;;;;31.87;12.13;;;;;;;;;;5096866;28;20043;-91
2024/01/19 08:29:44;;;;;;;31.57;13.20;;;;;;;;;;5094972;28;20254;-89
2024/01/19 08:32:10;;;;;;;29.33;13.27;;;;;;;;;;5095694;28;20491;-90
2024/01/19 08:34:35;;;;;;;27.53;12.70;;;;;;;;;;5094980;28;20383;-90
2024/01/19 08:37:00;;;;;;;34.87;15.53;;;;;;;;;;5093666;28;20436;-90
2024/01/19 08:39:25;;;;;;;23.00;12.67;;;;;;;;;;5094870;28;20024;-90
2024/01/19 08:41:50;;;;;;;23.40;12.20;;;;;;;;;;5093998;28;20027;-90
2024/01/19 08:44:16;;;;;;;23.90;13.03;;;;;;;;;;5094793;28;20030;-90
2024/01/19 08:46:41;;;;;;;23.73;12.87;;;;;;;;;;5103913;28;20020;-90
2024/01/19 08:49:14;;;;;;;24.33;12.00;;;;;;;;;;5101563;28;20016;-90
2024/01/19 08:51:39;;;;;;;20.30;12.20;;;;;;;;;;5110563;28;20027;-89
2024/01/19 08:54:06;;;;;;;18.07;10.50;;;;;;;;;;5115358;28;20016;-89
2024/01/19 08:56:32;;;;;;;20.98;12.20;;;;;;;;;;5116957;28;20084;-90
2024/01/19 08:58:57;;;;;;;20.87;12.17;;;;;;;;;;5117286;28;20004;-90
2024/01/19 09:01:22;;;;;;;18.10;11.70;;;;;;;;;;5099348;27;20004;-88
2024/01/19 09:03:48;;;;;;;22.47;11.50;;;;;;;;;;5102250;28;20263;-90
2024/01/19 09:06:13;;;;;;;23.07;12.07;;;;;;;;;;5082088;28;20111;-90
2024/01/19 09:08:42;;;;;;;19.10;11.33;;;;;;;;;;5095315;28;20463;-89
2024/01/19 09:11:08;;;;;;;18.13;10.90;;;;;;;;;;5089620;28;20020;-89
2024/01/19 09:13:33;;;;;;;25.05;12.05;;;;;;;;;;5092995;28;20070;-90
2024/01/19 09:15:59;;;;;;;20.20;11.37;;;;;;;;;;5091587;28;20038;-90
2024/01/19 09:18:24;;;;;;;21.50;11.60;;;;;;;;;;5094688;28;20046;-90
2024/01/19 09:20:49;;;;;;;24.97;12.37;;;;;;;;;;5096086;28;20013;-90
2024/01/19 09:23:15;;;;;;;20.27;11.20;;;;;;;;;;5095633;28;20503;-90
2024/01/19 09:25:40;;;;;;;20.77;11.30;;;;;;;;;;5111406;28;20024;-90
2024/01/19 09:28:05;;;;;;;23.63;11.60;;;;;;;;;;5112242;28;20246;-89
2024/01/19 09:30:30;;;;;;;19.20;11.33;;;;;;;;;;5115328;28;20016;-90
2024/01/19 09:32:55;;;;;;;17.57;11.70;;;;;;;;;;5117109;28;20042;-90
2024/01/19 09:35:21;;;;;;;22.17;12.33;;;;;;;;;;5116824;28;20026;-88
2024/01/19 09:37:46;;;;;;;22.97;12.47;;;;;;;;;;5103866;28;20549;-89
2024/01/19 09:40:12;;;;;;;23.50;12.13;;;;;;;;;;5097483;28;20036;-90
2024/01/19 09:42:39;;;;;;;21.63;12.27;;;;;;;;;;5079576;28;20025;-90
2024/01/19 09:45:04;;;;;;;21.55;13.70;;;;;;;;;;5093187;28;20474;-90
2024/01/19 09:47:41;;;;;;;28.10;13.57;;;;;;;;;;5094307;28;20055;-90
2024/01/19 09:50:09;;;;;;;24.08;13.40;;;;;;;;;;5091835;28;20024;-88
2024/01/19 09:52:34;;;;;;;28.90;13.80;;;;;;;;;;5073058;28;20026;-89
2024/01/19 09:54:59;;;;;;;27.33;13.67;;;;;;;;;;5073552;28;20357;-89
2024/01/19 09:57:25;;;;;;;26.60;13.77;;;;;;;;;;5078429;28;20016;-89
2024/01/19 09:59:50;;;;;;;23.60;13.60;;;;;;;;;;5093591;28;20420;-89
2024/01/19 10:02:17;;;;;;;27.07;13.90;;;;;;;;;;5093632;28;20024;-89
2024/01/19 10:04:42;;;;;;;29.38;13.15;;;;;;;;;;5092498;28;20020;-88
2024/01/19 10:07:08;;;;;;;28.83;13.90;;;;;;;;;;5094962;28;20053;-89
2024/01/19 10:09:33;;;;;;;24.70;14.97;;;;;;;;;;5094460;28;20020;-89
2024/01/19 10:11:58;;;;;;;29.87;14.30;;;;;;;;;;5091094;28;20024;-94
2024/01/19 10:14:25;;;;;;;32.00;15.10;;;;;;;;;;5094492;28;20024;-90
2024/01/19 10:16:51;;;;;;;35.37;16.13;;;;;;;;;;5093305;28;20027;-90
2024/01/19 10:19:16;;;;;;;25.50;15.77;;;;;;;;;;5090988;28;20028;-89
2024/01/19 10:21:42;;;;;;;34.77;18.03;;;;;;;;;;5093726;28;20264;-88
2024/01/19 10:24:14;;;;;;;34.65;16.40;;;;;;;;;;5092217;28;20468;-87
2024/01/19 10:26:39;;;;;;;32.20;15.80;;;;;;;;;;5083567;28;20024;-89
2024/01/19 10:29:08;;;;;;;30.63;15.57;;;;;;;;;;5091442;28;20284;-89
2024/01/19 10:31:33;;;;;;;25.02;14.85;;;;;;;;;;5091921;28;20012;-89
2024/01/19 10:33:59;;;;;;;23.63;14.33;;;;;;;;;;5096145;28;20050;-89
2024/01/19 10:36:25;;;;;;;31.50;15.63;;;;;;;;;;5090597;28;20519;-88
2024/01/19 10:38:51;;;;;;;30.08;15.60;;;;;;;;;;5089542;28;20141;-89
2024/01/19 10:41:17;;;;;;;28.73;14.43;;;;;;;;;;5337176;22;20056;-88
2024/01/19 10:43:43;;;;;;;25.48;14.25;;;;;;;;;;5054246;28;20464;-88
2024/01/19 10:46:18;;;;;;;26.63;13.57;;;;;;;;;;5064482;28;20024;-89
2024/01/19 10:48:46;;;;;;;29.67;14.27;;;;;;;;;;5050861;28;20118;-89
2024/01/19 10:51:12;;;;;;;28.38;16.48;;;;;;;;;;5046753;28;20021;-89
2024/01/19 10:53:37;;;;;;;26.63;14.57;;;;;;;;;;5031304;28;20035;-88
2024/01/19 10:56:03;;;;;;;26.83;14.77;;;;;;;;;;5049773;28;20020;-88
2024/01/19 10:58:32;;;;;;;27.65;14.48;;;;;;;;;;5048396;28;20063;-89
2024/01/19 11:01:14;;;;;;;32.22;14.77;;;;;;;;;;5044048;28;20021;-89
2024/01/19 11:03:40;;;;;;;25.08;14.10;;;;;;;;;;5049583;28;20120;-87
2024/01/19 11:12:33;;;;;;;26.10;14.15;;;;;;;;;;5104235;28;20429;-86
2024/01/19 11:15:00;;;;;;;30.37;14.37;;;;;;;;;;5107608;28;20461;-85
2024/01/19 11:17:26;;;;;;;33.23;14.97;;;;;;;;;;5107813;28;20277;-86
2024/01/19 11:19:51;;;;;;;31.65;15.68;;;;;;;;;;5089762;28;20028;-85
2024/01/19 11:22:16;;;;;;;30.00;15.40;;;;;;;;;;5105277;28;20209;-86
2024/01/19 11:24:45;;;;;;;30.33;15.87;;;;;;;;;;5097660;28;20071;-88
2024/01/19 11:27:14;;;;;;;28.25;14.50;;;;;;;;;;5096008;28;20036;-88
2024/01/19 11:29:41;;;;;;;31.95;17.02;;;;;;;;;;5093957;28;20121;-85
2024/01/19 11:32:07;;;;;;;33.75;16.23;;;;;;;;;;5106377;28;20047;-86
2024/01/19 11:34:41;;;;;;;30.88;15.73;;;;;;;;;;5108629;28;20032;-86
2024/01/19 11:37:07;;;;;;;30.55;14.65;;;;;;;;;;5091080;28;20024;-86
2024/01/19 11:39:42;;;;;;;29.30;14.90;;;;;;;;;;5102650;28;20031;-86
2024/01/19 11:42:26;;;;;;;32.95;15.48;;;;;;;;;;5091775;28;20028;-88
2024/01/19 11:44:51;;;;;;;33.45;16.80;;;;;;;;;;5090081;28;20032;-87
2024/01/19 11:47:35;;;;;;;27.00;15.67;;;;;;;;;;5102589;28;20034;-88
2024/01/19 11:50:00;;;;;;;29.53;16.13;;;;;;;;;;5092749;28;20429;-87
2024/01/19 11:52:25;;;;;;;32.90;16.40;;;;;;;;;;5097525;28;20039;-90
2024/01/19 11:54:50;;;;;;;37.40;16.90;;;;;;;;;;5110167;28;20072;-88
2024/01/19 11:57:16;;;;;;;37.13;17.73;;;;;;;;;;5109589;28;20130;-87
2024/01/19 11:59:45;;;;;;;34.33;16.67;;;;;;;;;;5110218;28;20015;-88
2024/01/19 12:02:23;;;;;;;37.93;17.23;;;;;;;;;;5108837;28;20402;-86
2024/01/19 12:04:48;;;;;;;32.60;15.88;;;;;;;;;;5109251;28;20027;-85
2024/01/19 12:07:18;;;;;;;26.65;16.08;;;;;;;;;;5108833;28;20479;-85
2024/01/19 12:09:43;;;;;;;28.17;15.02;;;;;;;;;;5113051;28;20045;-85
2024/01/19 12:12:08;;;;;;;28.57;14.97;;;;;;;;;;5115737;28;20035;-85
2024/01/19 12:14:33;;;;;;;28.70;15.17;;;;;;;;;;5111743;28;20030;-85
2024/01/19 12:16:59;;;;;;;27.43;15.20;;;;;;;;;;5109682;28;20035;-86
2024/01/19 12:19:24;;;;;;;27.23;15.07;;;;;;;;;;5109685;28;20016;-86
2024/01/19 12:25:12;;;;;;;23.87;14.67;;;;;;;;;;5007409;28;20827;-88
2024/01/19 12:27:38;;;;;;;29.67;14.95;;;;;;;;;;5006888;28;20208;-87
2024/01/19 12:30:13;;;;;;;30.77;13.57;;;;;;;;;;5047553;28;20104;-87
2024/01/19 12:32:38;;;;;;;27.67;13.52;;;;;;;;;;5071360;28;20047;-87
2024/01/19 12:35:03;;;;;;;26.40;13.73;;;;;;;;;;5071418;28;20375;-90
2024/01/19 12:37:29;;;;;;;25.33;13.23;;;;;;;;;;5072776;28;20025;-87
2024/01/19 12:40:09;;;;;;;23.52;13.23;;;;;;;;;;5071788;28;20027;-87
2024/01/19 12:42:36;;;;;;;22.17;12.65;;;;;;;;;;5058062;28;20020;-88
2024/01/19 12:45:02;;;;;;;24.33;13.03;;;;;;;;;;5073219;28;20075;-87
2024/01/19 12:47:27;;;;;;;22.83;12.35;;;;;;;;;;5054390;28;20021;-88
2024/01/19 12:49:52;;;;;;;28.40;13.67;;;;;;;;;;5070692;28;20020;-88
2024/01/19 12:52:18;;;;;;;24.27;12.23;;;;;;;;;;5071676;28;20029;-88
2024/01/19 12:54:44;;;;;;;19.97;12.53;;;;;;;;;;5071215;28;20506;-87
2024/01/19 12:57:16;;;;;;;24.00;11.93;;;;;;;;;;5064335;28;20115;-88
2024/01/19 12:59:41;;;;;;;21.23;11.20;;;;;;;;;;5072829;28;20012;-88
2024/01/19 13:02:09;;;;;;;19.70;11.70;;;;;;;;;;5064144;28;20043;-90
2024/01/19 13:04:34;;;;;;;16.40;10.60;;;;;;;;;;5072516;28;20107;-88
2024/01/19 13:06:59;;;;;;;26.37;11.00;;;;;;;;;;5070457;28;20555;-88
2024/01/19 13:09:25;;;;;;;22.03;11.50;;;;;;;;;;5072315;28;20017;-92
2024/01/19 13:11:51;;;;;;;23.47;11.70;;;;;;;;;;5070576;28;20032;-90
2024/01/19 13:14:22;;;;;;;18.85;11.93;;;;;;;;;;5054229;28;20036;-89
2024/01/19 13:16:54;;;;;;;20.48;10.98;;;;;;;;;;5074687;28;20024;-89
2024/01/19 13:19:19;;;;;;;21.27;11.07;;;;;;;;;;5072364;28;20025;-90
2024/01/19 13:21:45;;;;;;;22.73;12.23;;;;;;;;;;5071994;28;20044;-90
2024/01/19 13:24:10;;;;;;;24.07;12.73;;;;;;;;;;5073383;28;20028;-90
2024/01/19 13:26:36;;;;;;;22.00;12.20;;;;;;;;;;5079586;28;20267;-89
2024/01/19 13:29:01;;;;;;;21.63;10.87;;;;;;;;;;5074981;28;20020;-90
2024/01/19 13:31:26;;;;;;;22.43;11.73;;;;;;;;;;5072880;28;20090;-90
2024/01/19 13:33:52;;;;;;;21.77;12.53;;;;;;;;;;5070411;28;20060;-90
2024/01/19 13:36:20;;;;;;;20.73;12.30;;;;;;;;;;5072200;28;20025;-89
2024/01/19 13:38:46;;;;;;;21.55;11.93;;;;;;;;;;5072084;28;20054;-90
2024/01/19 13:41:12;;;;;;;24.25;11.73;;;;;;;;;;5069217;28;20012;-90
2024/01/19 13:43:40;;;;;;;21.60;11.37;;;;;;;;;;5072742;28;20008;-91
2024/01/19 13:46:05;;;;;;;21.98;11.98;;;;;;;;;;5071594;28;20080;-90
2024/01/19 13:48:30;;;;;;;26.20;12.07;;;;;;;;;;5072027;28;20048;-90
2024/01/19 13:50:55;;;;;;;22.50;12.13;;;;;;;;;;5070901;28;20074;-89
2024/01/19 13:53:21;;;;;;;22.00;12.03;;;;;;;;;;5072185;28;20347;-89
2024/01/19 13:55:46;;;;;;;18.43;11.87;;;;;;;;;;5070455;28;20020;-90
2024/01/19 13:58:11;;;;;;;25.43;11.60;;;;;;;;;;5071056;28;20146;-90
2024/01/19 14:00:36;;;;;;;20.53;11.50;;;;;;;;;;5053300;28;20013;-90
2024/01/19 14:03:02;;;;;;;21.60;11.30;;;;;;;;;;5061123;28;20032;-90
2024/01/19 14:05:28;;;;;;;21.50;11.88;;;;;;;;;;5072957;28;20032;-89
2024/01/19 14:07:53;;;;;;;25.70;12.50;;;;;;;;;;5071642;28;20533;-90
2024/01/19 14:10:18;;;;;;;25.30;12.60;;;;;;;;;;5072756;28;20106;-90
2024/01/19 14:12:44;;;;;;;27.20;13.17;;;;;;;;;;5074571;28;20366;-90
2024/01/19 14:15:10;;;;;;;21.48;11.98;;;;;;;;;;5085698;28;20047;-89
2024/01/19 14:17:35;;;;;;;24.73;13.30;;;;;;;;;;5086083;28;20025;-91
2024/01/19 14:20:00;;;;;;;23.47;12.50;;;;;;;;;;5074343;28;20040;-90
2024/01/19 14:22:25;;;;;;;24.57;12.97;;;;;;;;;;5075311;28;20025;-91
2024/01/19 14:24:50;;;;;;;24.67;12.73;;;;;;;;;;5072034;28;20070;-90
2024/01/19 14:27:16;;;;;;;26.17;12.90;;;;;;;;;;5072631;28;20024;-89
2024/01/19 14:29:41;;;;;;;23.00;13.00;;;;;;;;;;5072473;28;20086;-91
2024/01/19 14:32:06;;;;;;;28.53;12.63;;;;;;;;;;5055367;28;20446;-90
2024/01/19 14:34:31;;;;;;;25.77;12.80;;;;;;;;;;5074198;28;20032;-90
2024/01/19 14:36:57;;;;;;;26.33;13.13;;;;;;;;;;5073349;28;20028;-89
2024/01/19 14:39:23;;;;;;;29.23;13.65;;;;;;;;;;5072374;28;20023;-92
2024/01/19 14:41:48;;;;;;;25.00;14.50;;;;;;;;;;5072856;28;20142;-90